Washington Boro, Pennsylvania
Current Conditions -  °F | °C
As of 7:08 AM on Monday 24 Nov 2014 (Local Time) from KLNS Reporting Station
Overcast Overcast  
Wind Chill: 62°   Ceiling: 1600
Heat Index: 62°   Visibility: 10mi
Dew Point: 58°   Wind: 14mph
Humidity: 86%   Direction: 200°SSW
Pressure: 29.63"   Gusts: NA
Location:  39.99°N, 76.47°W
Report Text: KLNS 241208Z 20012KT 10SM BKN016 OVC021 17/14 A2963 RMK AO2 T01670144
Loading
Personal Weather Stations






























Interactive Weather Map New forecast layout! Learn more

10-Day Weather Forecast

Advertisements
Track Severe Weather on mobile